Alguazas, Spain
Current Conditions -  °F | °C
As of 10:00 PM on Saturday 20 Dec 2014 (Local Time) from LELC Reporting Station
Broken Clouds Broken Clouds  
Wind Chill: 55°   Ceiling: 2500
Heat Index: 55°   Visibility: 6mi
Dew Point: 52°   Wind: 3mph
Humidity: 88%   Direction: 300°WNW
Pressure: 30.45"   Gusts: NA
Location:  38.05°N, 1.25°W
Report Text: LELC 202100Z 30003KT 9999 BKN025 13/11 Q1031 NOSIG
Loading
Personal Weather Stations






























Interactive Weather Map New forecast layout! Learn more

10-Day Weather Forecast

Advertisements
Track Severe Weather on mobile